createdAt,value
2019-06-15T00:01:35.991Z,15.13
2019-06-15T00:04:06.679Z,15.24
2019-06-15T00:06:37.196Z,15.35
2019-06-15T00:09:08.872Z,15.67
2019-06-15T00:11:39.411Z,15.73
2019-06-15T00:14:09.987Z,15.76
2019-06-15T00:16:41.015Z,15.68
2019-06-15T00:19:11.922Z,15.63
2019-06-15T00:21:42.442Z,15.55
2019-06-15T00:24:12.938Z,15.56
2019-06-15T00:26:43.465Z,15.56
2019-06-15T00:29:14.851Z,15.59
2019-06-15T00:31:45.406Z,15.50
2019-06-15T00:34:16.961Z,15.16
2019-06-15T00:36:47.511Z,14.70
2019-06-15T00:39:18.013Z,14.47
2019-06-15T00:41:48.534Z,14.30
2019-06-15T00:44:19.086Z,14.51
2019-06-15T00:46:49.610Z,14.08
2019-06-15T00:49:20.101Z,13.85
2019-06-15T00:51:50.623Z,13.62
2019-06-15T00:54:21.139Z,13.49
2019-06-15T00:56:51.970Z,13.83
2019-06-15T00:59:23.257Z,14.13
2019-06-15T01:01:54.310Z,14.33
2019-06-15T01:04:24.834Z,14.52
2019-06-15T01:06:55.393Z,14.70
2019-06-15T01:09:25.934Z,14.77
2019-06-15T01:11:56.539Z,14.79
2019-06-15T01:14:27.265Z,14.89
2019-06-15T01:17:02.668Z,14.94
2019-06-15T01:19:36.108Z,14.79
2019-06-15T01:22:06.656Z,14.74
2019-06-15T01:24:37.177Z,14.76
2019-06-15T01:27:07.747Z,14.56
2019-06-15T01:29:38.791Z,14.22
2019-06-15T01:32:09.477Z,13.90
2019-06-15T01:34:40.101Z,13.48
2019-06-15T01:37:10.667Z,13.24
2019-06-15T01:39:41.167Z,13.33
2019-06-15T01:42:11.710Z,13.29
2019-06-15T01:44:42.230Z,13.30
2019-06-15T01:47:12.806Z,13.48
2019-06-15T01:49:43.372Z,13.42
2019-06-15T01:52:13.914Z,13.51
2019-06-15T01:54:44.431Z,13.54
2019-06-15T01:57:15.038Z,13.89
2019-06-15T01:59:45.561Z,14.02
2019-06-15T02:02:16.506Z,14.17
2019-06-15T02:04:47.102Z,14.20
2019-06-15T02:07:17.641Z,14.33
2019-06-15T02:09:48.641Z,14.50
2019-06-15T02:12:19.273Z,14.47
2019-06-15T02:14:49.750Z,14.54
2019-06-15T02:17:20.289Z,14.65
2019-06-15T02:19:51.163Z,14.64
2019-06-15T02:22:21.702Z,14.38
2019-06-15T02:24:52.649Z,14.29
2019-06-15T02:27:23.814Z,13.94
2019-06-15T02:29:54.311Z,14.04
2019-06-15T02:32:25.194Z,14.18
2019-06-15T02:34:55.924Z,14.33
2019-06-15T02:37:27.476Z,14.27
2019-06-15T02:39:59.389Z,14.15
2019-06-15T02:42:30.072Z,13.86
2019-06-15T02:45:01.619Z,13.65
2019-06-15T02:47:33.314Z,13.19
2019-06-15T02:50:04.288Z,12.89
2019-06-15T02:52:34.875Z,12.62
2019-06-15T02:55:06.041Z,12.63
2019-06-15T02:57:36.794Z,12.95
2019-06-15T03:00:09.177Z,13.24
2019-06-15T03:02:39.700Z,13.24
2019-06-15T03:05:10.766Z,13.49
2019-06-15T03:07:41.466Z,13.58
2019-06-15T03:10:12.807Z,13.85
2019-06-15T03:12:43.446Z,13.93
2019-06-15T03:15:15.381Z,14.03
2019-06-15T03:17:46.086Z,13.97
2019-06-15T03:20:16.735Z,13.92
2019-06-15T03:22:47.229Z,13.96
2019-06-15T03:25:18.785Z,14.06
2019-06-15T03:27:49.333Z,14.12
2019-06-15T03:30:20.314Z,13.83
2019-06-15T03:32:50.896Z,13.62
2019-06-15T03:35:22.073Z,13.93
2019-06-15T03:37:52.588Z,14.05
2019-06-15T03:40:24.429Z,14.02
2019-06-15T03:42:55.338Z,13.72
2019-06-15T03:45:26.227Z,14.04
2019-06-15T03:47:56.799Z,14.16
2019-06-15T03:50:27.393Z,14.31
2019-06-15T03:52:57.881Z,14.50
2019-06-15T03:55:28.681Z,13.84
2019-06-15T03:57:59.190Z,13.89
2019-06-15T04:01:01.979Z,14.07
2019-06-15T04:03:32.618Z,13.89
2019-06-15T04:06:03.096Z,14.19
2019-06-15T04:08:33.781Z,14.17
2019-06-15T04:11:04.534Z,14.29
2019-06-15T04:13:35.042Z,14.74
2019-06-15T04:16:06.086Z,14.97
2019-06-15T04:18:36.664Z,15.02
2019-06-15T04:21:07.151Z,15.30
2019-06-15T04:23:37.666Z,15.27
2019-06-15T04:26:08.518Z,15.36
2019-06-15T04:28:39.082Z,15.36
2019-06-15T04:31:10.152Z,15.43
2019-06-15T04:33:40.639Z,15.58
2019-06-15T04:36:11.181Z,15.31
2019-06-15T04:38:42.147Z,15.08
2019-06-15T04:41:15.772Z,15.22
2019-06-15T04:43:46.308Z,15.47
2019-06-15T04:46:17.316Z,15.72
2019-06-15T04:48:47.780Z,16.06
2019-06-15T04:51:18.389Z,16.39
2019-06-15T04:53:50.247Z,16.57
2019-06-15T04:56:20.730Z,16.56
2019-06-15T04:58:51.255Z,16.79
2019-06-15T05:01:21.734Z,17.00
2019-06-15T05:03:52.597Z,16.91
2019-06-15T05:06:23.270Z,17.07
2019-06-15T05:08:53.742Z,17.25
2019-06-15T05:11:24.237Z,17.24
2019-06-15T05:13:54.792Z,17.21
2019-06-15T05:16:25.672Z,17.26
2019-06-15T05:18:56.603Z,17.55
2019-06-15T05:21:27.585Z,17.84
2019-06-15T05:23:58.202Z,18.06
2019-06-15T05:26:28.685Z,18.17
2019-06-15T05:28:59.231Z,18.48
2019-06-15T05:31:30.085Z,18.75
2019-06-15T05:34:00.553Z,18.99
2019-06-15T05:36:31.124Z,19.25
2019-06-15T05:39:01.606Z,19.49
2019-06-15T05:41:33.447Z,19.26
2019-06-15T05:44:03.975Z,19.31
2019-06-15T05:46:34.456Z,19.43
2019-06-15T05:49:05.307Z,19.82
2019-06-15T05:51:35.881Z,19.81
2019-06-15T05:54:06.363Z,19.88
2019-06-15T05:56:37.243Z,20.01
2019-06-15T05:59:07.767Z,20.22
2019-06-15T06:01:38.262Z,20.84
2019-06-15T06:04:08.721Z,21.08
2019-06-15T06:06:39.661Z,20.58
2019-06-15T06:09:10.189Z,21.01
2019-06-15T06:11:40.682Z,21.36
2019-06-15T06:14:11.210Z,21.93
2019-06-15T06:16:42.191Z,21.70
2019-06-15T06:19:12.694Z,22.02
2019-06-15T06:21:43.738Z,22.29
2019-06-15T06:24:14.711Z,22.34
2019-06-15T06:26:45.302Z,22.32
2019-06-15T06:29:15.832Z,22.17
2019-06-15T06:31:46.723Z,22.04
2019-06-15T06:34:17.621Z,22.43
2019-06-15T06:36:48.641Z,22.73
2019-06-15T06:39:19.632Z,23.11
2019-06-15T06:41:51.113Z,23.32
2019-06-15T06:44:21.601Z,23.78
2019-06-15T06:46:52.084Z,23.99
2019-06-15T06:49:22.599Z,24.04
2019-06-15T06:51:53.932Z,24.07
2019-06-15T06:54:25.202Z,24.34
2019-06-15T06:56:56.044Z,24.78
2019-06-15T06:59:27.019Z,24.95
2019-06-15T07:01:57.495Z,25.57
2019-06-15T07:04:28.481Z,25.94
2019-06-15T07:06:59.670Z,26.27
2019-06-15T07:09:30.323Z,26.57
2019-06-15T07:12:00.891Z,26.99
2019-06-15T07:14:31.365Z,27.17
2019-06-15T07:17:01.937Z,27.06
2019-06-15T07:19:32.432Z,26.89
2019-06-15T07:22:03.129Z,26.87
2019-06-15T07:24:33.582Z,27.04
2019-06-15T07:27:04.250Z,27.39
2019-06-15T07:29:34.734Z,27.46
2019-06-15T07:32:05.195Z,27.29
2019-06-15T07:34:36.183Z,27.57
2019-06-15T07:37:06.840Z,27.77
2019-06-15T07:39:37.344Z,27.78
2019-06-15T07:42:08.717Z,27.75
2019-06-15T07:44:39.697Z,27.69
2019-06-15T07:47:10.174Z,27.70
2019-06-15T07:49:43.659Z,27.58
2019-06-15T07:52:14.628Z,27.64
2019-06-15T07:54:45.880Z,28.20
2019-06-15T07:57:16.759Z,28.72
2019-06-15T07:59:47.738Z,28.88
2019-06-15T08:02:18.206Z,29.36
2019-06-15T08:04:48.707Z,29.61
2019-06-15T08:07:19.208Z,29.17
2019-06-15T08:09:50.194Z,28.69
2019-06-15T08:12:20.673Z,28.51
2019-06-15T08:14:51.239Z,28.76
2019-06-15T08:17:21.708Z,28.04
2019-06-15T08:19:52.160Z,28.49
2019-06-15T08:22:22.688Z,28.31
2019-06-15T08:24:53.520Z,28.03
2019-06-15T08:27:23.976Z,27.67
2019-06-15T08:29:54.549Z,27.78
2019-06-15T08:32:25.034Z,28.17
2019-06-15T08:34:55.513Z,28.85
2019-06-15T08:37:26.424Z,29.11
2019-06-15T08:39:56.907Z,29.97
2019-06-15T08:42:28.531Z,29.76
2019-06-15T08:44:59.597Z,29.53
2019-06-15T08:47:30.074Z,29.77
2019-06-15T08:50:00.535Z,29.86
2019-06-15T08:52:31.047Z,30.51
2019-06-15T08:55:01.525Z,30.67
2019-06-15T08:57:32.364Z,30.58
2019-06-15T09:00:03.623Z,31.01
2019-06-15T09:02:36.931Z,30.94
2019-06-15T09:05:08.462Z,31.20
2019-06-15T09:07:39.327Z,30.62
2019-06-15T09:10:10.894Z,30.17
2019-06-15T09:12:41.477Z,30.48
2019-06-15T09:15:12.642Z,30.71
2019-06-15T09:17:43.098Z,29.84
2019-06-15T09:20:14.507Z,29.95
2019-06-15T09:22:45.035Z,29.64
2019-06-15T09:25:15.670Z,30.35
2019-06-15T09:27:46.131Z,31.01
2019-06-15T09:30:17.363Z,30.61
2019-06-15T09:32:47.703Z,30.31
2019-06-15T09:35:18.143Z,30.33
2019-06-15T09:37:48.531Z,29.87
2019-06-15T09:40:21.242Z,29.91
2019-06-15T09:42:52.551Z,30.21
2019-06-15T09:45:22.960Z,29.79
2019-06-15T09:47:53.296Z,29.64
2019-06-15T09:50:23.723Z,29.48
2019-06-15T09:52:54.070Z,29.27
2019-06-15T09:55:25.074Z,28.98
2019-06-15T09:57:55.430Z,29.44
2019-06-15T10:00:25.763Z,29.68
2019-06-15T10:02:56.088Z,30.17
2019-06-15T10:05:26.531Z,30.36
2019-06-15T10:07:56.887Z,30.78
2019-06-15T10:10:27.211Z,30.97
2019-06-15T10:12:57.589Z,30.92
2019-06-15T10:15:27.915Z,30.72
2019-06-15T10:17:58.255Z,30.88
2019-06-15T10:20:28.680Z,31.32
2019-06-15T10:22:59.010Z,31.66
2019-06-15T10:25:29.926Z,31.96
2019-06-15T10:28:00.919Z,32.16
2019-06-15T10:30:31.807Z,32.57
2019-06-15T10:33:02.159Z,32.47
2019-06-15T10:35:32.922Z,32.14
2019-06-15T10:38:03.319Z,31.67
2019-06-15T10:40:34.311Z,32.18
2019-06-15T10:43:06.147Z,32.65
2019-06-15T10:45:37.121Z,31.85
2019-06-15T10:48:07.468Z,31.75
2019-06-15T10:50:38.422Z,31.75
2019-06-15T10:53:08.854Z,31.89
2019-06-15T10:55:39.176Z,32.08
2019-06-15T10:58:10.108Z,31.31
2019-06-15T11:00:40.472Z,31.15
2019-06-15T11:03:11.383Z,31.78
2019-06-15T11:05:41.712Z,32.33
2019-06-15T11:08:12.127Z,31.76
2019-06-15T11:10:56.301Z,31.03
2019-06-15T11:13:26.788Z,30.02
2019-06-15T11:15:58.279Z,30.20
2019-06-15T11:18:29.120Z,30.18
2019-06-15T11:20:59.544Z,31.01
2019-06-15T11:23:29.876Z,30.90
2019-06-15T11:26:00.218Z,31.47
2019-06-15T11:28:31.219Z,31.84
2019-06-15T11:31:01.628Z,32.33
2019-06-15T11:33:32.555Z,32.02
2019-06-15T11:36:02.925Z,31.79
2019-06-15T11:38:33.262Z,31.55
2019-06-15T11:41:03.730Z,31.90
2019-06-15T11:43:35.869Z,31.85
2019-06-15T11:46:06.195Z,32.09
2019-06-15T11:48:36.554Z,32.07
2019-06-15T11:51:06.925Z,31.77
2019-06-15T11:53:37.846Z,32.34
2019-06-15T11:56:08.610Z,32.87
2019-06-15T11:58:39.027Z,32.93
2019-06-15T12:01:12.335Z,32.97
2019-06-15T12:03:43.248Z,33.04
2019-06-15T12:06:14.226Z,33.15
2019-06-15T12:08:45.200Z,33.51
2019-06-15T12:11:15.628Z,33.24
2019-06-15T12:13:46.638Z,33.04
2019-06-15T12:16:17.023Z,33.55
2019-06-15T12:18:47.354Z,34.03
2019-06-15T12:21:18.321Z,34.08
2019-06-15T12:23:48.659Z,32.88
2019-06-15T12:26:19.595Z,32.01
2019-06-15T12:28:51.279Z,32.18
2019-06-15T12:31:22.201Z,32.35
2019-06-15T12:33:52.557Z,33.12
2019-06-15T12:36:22.923Z,32.69
2019-06-15T12:38:53.840Z,33.04
2019-06-15T12:41:24.751Z,33.00
2019-06-15T12:43:55.876Z,33.45
2019-06-15T12:46:26.275Z,33.35
2019-06-15T12:48:56.644Z,34.00
2019-06-15T12:51:27.013Z,32.57
2019-06-15T12:53:57.344Z,32.06
2019-06-15T12:56:28.264Z,32.87
2019-06-15T12:58:59.604Z,33.21
2019-06-15T13:01:30.526Z,33.73
2019-06-15T13:04:00.849Z,33.68
2019-06-15T13:06:31.218Z,33.66
2019-06-15T13:09:01.541Z,33.29
2019-06-15T13:11:32.463Z,33.22
2019-06-15T13:14:03.004Z,33.48
2019-06-15T13:16:39.336Z,33.44
2019-06-15T13:19:05.496Z,32.34
2019-06-15T13:21:36.288Z,31.97
2019-06-15T13:24:07.340Z,32.11
2019-06-15T13:26:37.667Z,32.45
2019-06-15T13:29:08.088Z,33.24
2019-06-15T13:31:39.007Z,33.21
2019-06-15T13:34:09.912Z,32.71
2019-06-15T13:36:42.802Z,33.16
2019-06-15T13:39:13.718Z,33.37
2019-06-15T13:41:44.061Z,33.49
2019-06-15T13:44:16.137Z,33.72
2019-06-15T13:46:47.056Z,33.07
2019-06-15T13:49:17.981Z,33.40
2019-06-15T13:51:48.381Z,33.64
2019-06-15T13:54:19.278Z,33.46
2019-06-15T13:56:50.198Z,32.73
2019-06-15T13:59:21.503Z,32.68
2019-06-15T14:01:51.869Z,34.12
2019-06-15T14:04:22.195Z,33.95
2019-06-15T14:06:52.696Z,34.35
2019-06-15T14:09:23.023Z,33.06
2019-06-15T14:11:53.369Z,33.51
2019-06-15T14:14:23.816Z,34.05
2019-06-15T14:16:54.191Z,34.26
2019-06-15T14:19:24.527Z,33.73
2019-06-15T14:21:54.919Z,33.62
2019-06-15T14:24:25.268Z,33.14
2019-06-15T14:26:55.606Z,32.72
2019-06-15T14:29:26.617Z,32.39
2019-06-15T14:31:57.707Z,32.06
2019-06-15T14:34:28.573Z,32.45
2019-06-15T14:36:58.942Z,32.65
2019-06-15T14:39:29.268Z,33.80
2019-06-15T14:42:00.185Z,34.63
2019-06-15T14:44:31.442Z,35.56
2019-06-15T14:47:02.408Z,35.99
2019-06-15T14:49:33.322Z,36.53
2019-06-15T14:52:05.369Z,35.74
2019-06-15T14:54:37.325Z,35.93
2019-06-15T14:57:08.483Z,37.12
2019-06-15T14:59:52.000Z,37.78
2019-06-15T15:02:14.278Z,37.67
2019-06-15T15:04:44.762Z,37.29
2019-06-15T15:07:16.990Z,37.76
2019-06-15T15:09:50.041Z,37.76
2019-06-15T15:12:20.790Z,37.11
2019-06-15T15:14:51.802Z,37.24
2019-06-15T15:17:22.738Z,37.58
2019-06-15T15:19:53.740Z,37.47
2019-06-15T15:22:26.806Z,38.41
2019-06-15T15:24:57.353Z,38.48
2019-06-15T15:27:28.374Z,38.15
2019-06-15T15:29:59.389Z,38.12
2019-06-15T15:32:31.609Z,38.88
2019-06-15T15:35:06.577Z,38.73
2019-06-15T15:37:37.892Z,38.57
2019-06-15T15:40:09.896Z,37.76
2019-06-15T15:42:40.798Z,35.60
2019-06-15T15:45:12.643Z,35.60
2019-06-15T15:47:43.611Z,34.24
2019-06-15T15:50:17.496Z,32.78
2019-06-15T15:52:46.450Z,31.06
2019-06-15T15:55:17.463Z,30.71
2019-06-15T15:57:48.262Z,29.96
2019-06-15T16:00:31.616Z,29.70
2019-06-15T16:03:02.073Z,29.35
2019-06-15T16:05:32.545Z,29.13
2019-06-15T16:08:02.963Z,29.08
2019-06-15T16:10:33.859Z,28.97
2019-06-15T16:13:06.509Z,28.85
2019-06-15T16:15:37.856Z,28.98
2019-06-15T16:18:08.200Z,28.72
2019-06-15T16:20:38.574Z,28.65
2019-06-15T16:23:09.181Z,28.42
2019-06-15T16:25:40.563Z,28.42
2019-06-15T16:28:10.995Z,28.34
2019-06-15T16:31:03.821Z,28.19
2019-06-15T16:33:16.227Z,28.05
2019-06-15T16:35:46.892Z,28.00
2019-06-15T16:38:19.552Z,28.10
2019-06-15T16:40:49.296Z,27.94
2019-06-15T16:43:19.663Z,27.97
2019-06-15T16:45:50.295Z,27.59
2019-06-15T16:48:26.115Z,27.69
2019-06-15T16:50:57.795Z,27.68
2019-06-15T16:53:28.392Z,27.58
2019-06-15T16:55:58.781Z,27.25
2019-06-15T16:58:29.268Z,27.32
2019-06-15T17:00:59.788Z,27.31
2019-06-15T17:03:30.133Z,27.17
2019-06-15T17:06:03.352Z,26.93
2019-06-15T17:08:32.614Z,26.89
2019-06-15T17:11:02.979Z,26.81
2019-06-15T17:13:33.367Z,26.70
2019-06-15T17:16:05.938Z,26.55
2019-06-15T17:18:36.496Z,26.44
2019-06-15T17:21:07.331Z,26.32
2019-06-15T17:23:37.909Z,26.09
2019-06-15T17:26:08.242Z,26.03
2019-06-15T17:28:38.707Z,25.91
2019-06-15T17:31:09.097Z,25.70
2019-06-15T17:33:39.734Z,25.55
2019-06-15T17:36:10.069Z,25.04
2019-06-15T17:38:40.501Z,24.65
2019-06-15T17:41:10.859Z,24.58
2019-06-15T17:43:41.228Z,24.14
2019-06-15T17:46:11.652Z,23.97
2019-06-15T17:48:42.018Z,23.59
2019-06-15T17:51:12.392Z,23.29
2019-06-15T17:53:42.772Z,23.12
2019-06-15T17:56:13.219Z,23.31
2019-06-15T17:58:46.199Z,23.48
2019-06-15T18:01:17.169Z,23.54
2019-06-15T18:03:54.266Z,23.63
2019-06-15T18:06:19.949Z,23.54
2019-06-15T18:08:50.341Z,23.43
2019-06-15T18:11:20.672Z,23.40
2019-06-15T18:13:51.040Z,23.15
2019-06-15T18:16:21.443Z,22.49
2019-06-15T18:18:51.859Z,22.53
2019-06-15T18:21:22.237Z,22.41
2019-06-15T18:23:52.642Z,22.28
2019-06-15T18:26:22.980Z,22.23
2019-06-15T18:28:53.423Z,22.25
2019-06-15T18:31:23.866Z,22.15
2019-06-15T18:34:06.449Z,22.37
2019-06-15T18:36:26.700Z,22.30
2019-06-15T18:38:57.699Z,22.31
2019-06-15T18:41:28.170Z,22.37
2019-06-15T18:43:58.579Z,22.32
2019-06-15T18:46:29.011Z,22.32
2019-06-15T18:48:59.413Z,22.19
2019-06-15T18:51:29.769Z,22.11
2019-06-15T18:54:00.512Z,22.01
2019-06-15T18:56:30.996Z,21.90
2019-06-15T18:59:01.344Z,21.67
2019-06-15T19:01:31.786Z,21.57
2019-06-15T19:04:06.850Z,21.50
2019-06-15T19:06:37.168Z,21.37
2019-06-15T19:09:10.500Z,21.01
2019-06-15T19:11:41.076Z,20.88
2019-06-15T19:14:11.653Z,20.92
2019-06-15T19:16:42.452Z,20.80
2019-06-15T19:19:13.585Z,20.82
2019-06-15T19:21:51.760Z,20.96
2019-06-15T19:24:22.308Z,20.98
2019-06-15T19:26:52.912Z,20.95
2019-06-15T19:29:23.369Z,20.91
2019-06-15T19:31:54.338Z,20.88
2019-06-15T19:34:41.077Z,20.77
2019-06-15T19:36:58.465Z,20.72
2019-06-15T19:39:29.047Z,19.86
2019-06-15T19:41:59.432Z,19.46
2019-06-15T19:44:30.497Z,19.52
2019-06-15T19:47:01.109Z,19.40
2019-06-15T19:49:31.736Z,18.55
2019-06-15T19:52:02.206Z,18.59
2019-06-15T19:54:32.822Z,18.71
2019-06-15T19:57:03.402Z,18.85
2019-06-15T19:59:36.448Z,18.30
2019-06-15T20:02:06.796Z,18.08
2019-06-15T20:04:39.456Z,17.90
2019-06-15T20:07:11.617Z,18.04
2019-06-15T20:09:42.005Z,18.19
2019-06-15T20:12:19.002Z,18.25
2019-06-15T20:14:46.340Z,18.20
2019-06-15T20:17:23.106Z,18.30
2019-06-15T20:19:58.731Z,18.73
2019-06-15T20:22:46.784Z,18.72
2019-06-15T20:25:21.532Z,18.94
2019-06-15T20:27:52.064Z,18.97
2019-06-15T20:30:22.623Z,18.80
2019-06-15T20:32:53.152Z,18.99
2019-06-15T20:35:26.202Z,18.77
2019-06-15T20:37:56.052Z,18.74
2019-06-15T20:40:26.837Z,18.48
2019-06-15T20:42:57.437Z,18.55
2019-06-15T20:45:31.315Z,18.42
2019-06-15T20:47:59.943Z,18.22
2019-06-15T20:50:30.440Z,17.70
2019-06-15T20:53:00.917Z,17.40
2019-06-15T20:55:31.261Z,17.22
2019-06-15T20:58:01.603Z,17.15
2019-06-15T21:00:31.991Z,17.30
2019-06-15T21:03:02.333Z,17.61
2019-06-15T21:05:38.965Z,17.63
2019-06-15T21:08:06.817Z,17.80
2019-06-15T21:10:37.650Z,17.71
2019-06-15T21:13:08.026Z,17.63
2019-06-15T21:15:41.519Z,17.57
2019-06-15T21:18:11.971Z,17.79
2019-06-15T21:20:42.491Z,17.98
2019-06-15T21:23:12.977Z,17.70
2019-06-15T21:25:43.322Z,17.45
2019-06-15T21:28:13.721Z,17.16
2019-06-15T21:30:46.857Z,16.73
2019-06-15T21:33:16.256Z,16.67
2019-06-15T21:35:52.381Z,16.59
2019-06-15T21:38:18.966Z,16.60
2019-06-15T21:40:49.407Z,16.46
2019-06-15T21:43:19.801Z,16.37
2019-06-15T21:45:50.310Z,16.29
2019-06-15T21:48:20.648Z,16.41
2019-06-15T21:50:51.030Z,16.37
2019-06-15T21:53:21.493Z,16.34
2019-06-15T21:55:51.932Z,16.45
2019-06-15T21:58:22.331Z,16.87
2019-06-15T22:01:17.475Z,17.02
2019-06-15T22:03:47.857Z,17.15
2019-06-15T22:06:19.500Z,17.24
2019-06-15T22:08:49.898Z,17.32
2019-06-15T22:11:20.438Z,17.40
2019-06-15T22:13:50.793Z,17.27
2019-06-15T22:16:21.392Z,17.07
2019-06-15T22:18:51.801Z,17.13
2019-06-15T22:21:24.840Z,16.84
2019-06-15T22:23:55.871Z,16.27
2019-06-15T22:26:26.797Z,15.63
2019-06-15T22:28:57.320Z,15.62
2019-06-15T22:31:28.129Z,15.73
2019-06-15T22:33:58.878Z,15.79
2019-06-15T22:36:29.216Z,15.89
2019-06-15T22:38:59.996Z,15.96
2019-06-15T22:41:30.520Z,16.08
2019-06-15T22:44:00.878Z,16.02
2019-06-15T22:46:31.251Z,15.96
2019-06-15T22:49:01.817Z,15.80
2019-06-15T22:51:32.382Z,15.60
2019-06-15T22:54:02.879Z,15.34
2019-06-15T22:56:33.235Z,15.50
2019-06-15T22:59:06.119Z,15.79
2019-06-15T23:01:35.846Z,15.94
2019-06-15T23:04:06.734Z,16.07
2019-06-15T23:06:42.954Z,16.29
2019-06-15T23:09:10.944Z,16.51
2019-06-15T23:11:41.674Z,16.35
2019-06-15T23:14:12.002Z,16.26
2019-06-15T23:16:42.356Z,15.77
2019-06-15T23:19:13.095Z,15.28
2019-06-15T23:21:43.484Z,14.84
2019-06-15T23:24:16.430Z,14.68
2019-06-15T23:26:46.266Z,14.67
2019-06-15T23:29:16.842Z,14.50
2019-06-15T23:31:47.415Z,14.56
2019-06-15T23:34:17.819Z,14.91
2019-06-15T23:36:56.378Z,15.14
2019-06-15T23:39:21.934Z,15.36
2019-06-15T23:41:52.324Z,15.57
2019-06-15T23:44:23.075Z,15.73
2019-06-15T23:46:53.672Z,15.80
2019-06-15T23:49:24.076Z,15.77
2019-06-15T23:51:54.366Z,15.95
2019-06-15T23:54:24.751Z,15.91
2019-06-15T23:56:56.935Z,16.12
2019-06-15T23:59:27.607Z,16.03
